sensor_id;sensor_type;location;lat;lon;timestamp;P1;durP1;ratioP1;P2;durP2;ratioP2
73823;SDS011;62154;54.914;73.444;2022-12-07T00:01:51;96.55;;;29.15;;
73823;SDS011;62154;54.914;73.444;2022-12-07T00:04:18;55.88;;;21.55;;
73823;SDS011;62154;54.914;73.444;2022-12-07T00:06:51;55.00;;;20.23;;
73823;SDS011;62154;54.914;73.444;2022-12-07T00:09:19;49.80;;;19.02;;
73823;SDS011;62154;54.914;73.444;2022-12-07T00:11:52;46.67;;;19.40;;
73823;SDS011;62154;54.914;73.444;2022-12-07T00:14:19;70.22;;;21.85;;
73823;SDS011;62154;54.914;73.444;2022-12-07T00:16:48;101.13;;;32.58;;
73823;SDS011;62154;54.914;73.444;2022-12-07T00:19:16;84.28;;;29.55;;
73823;SDS011;62154;54.914;73.444;2022-12-07T00:21:44;70.38;;;26.42;;
73823;SDS011;62154;54.914;73.444;2022-12-07T00:24:16;82.60;;;29.35;;
73823;SDS011;62154;54.914;73.444;2022-12-07T00:26:43;55.75;;;22.25;;
73823;SDS011;62154;54.914;73.444;2022-12-07T00:29:15;76.55;;;23.67;;
73823;SDS011;62154;54.914;73.444;2022-12-07T00:31:45;60.25;;;22.35;;
73823;SDS011;62154;54.914;73.444;2022-12-07T00:34:17;77.82;;;27.15;;
73823;SDS011;62154;54.914;73.444;2022-12-07T00:36:46;139.18;;;46.15;;
73823;SDS011;62154;54.914;73.444;2022-12-07T00:39:24;131.68;;;43.25;;
73823;SDS011;62154;54.914;73.444;2022-12-07T00:41:51;63.60;;;21.83;;
73823;SDS011;62154;54.914;73.444;2022-12-07T00:44:18;56.45;;;21.25;;
73823;SDS011;62154;54.914;73.444;2022-12-07T00:46:46;77.03;;;26.98;;
73823;SDS011;62154;54.914;73.444;2022-12-07T00:49:16;87.85;;;31.08;;
73823;SDS011;62154;54.914;73.444;2022-12-07T00:51:43;93.90;;;32.45;;
73823;SDS011;62154;54.914;73.444;2022-12-07T00:54:11;100.97;;;32.53;;
73823;SDS011;62154;54.914;73.444;2022-12-07T00:56:38;91.25;;;30.73;;
73823;SDS011;62154;54.914;73.444;2022-12-07T00:59:06;114.57;;;41.35;;
73823;SDS011;62154;54.914;73.444;2022-12-07T01:01:34;135.10;;;44.03;;
73823;SDS011;62154;54.914;73.444;2022-12-07T01:04:03;108.68;;;38.83;;
73823;SDS011;62154;54.914;73.444;2022-12-07T01:06:32;131.75;;;41.95;;
73823;SDS011;62154;54.914;73.444;2022-12-07T01:08:59;151.75;;;45.17;;
73823;SDS011;62154;54.914;73.444;2022-12-07T01:11:28;194.75;;;57.97;;
73823;SDS011;62154;54.914;73.444;2022-12-07T01:13:56;155.07;;;51.05;;
73823;SDS011;62154;54.914;73.444;2022-12-07T01:16:25;143.82;;;48.00;;
73823;SDS011;62154;54.914;73.444;2022-12-07T01:18:54;176.30;;;58.08;;
73823;SDS011;62154;54.914;73.444;2022-12-07T01:21:24;187.13;;;65.32;;
73823;SDS011;62154;54.914;73.444;2022-12-07T01:23:53;102.45;;;44.38;;
73823;SDS011;62154;54.914;73.444;2022-12-07T01:26:21;119.00;;;42.58;;
73823;SDS011;62154;54.914;73.444;2022-12-07T01:28:50;110.60;;;40.25;;
73823;SDS011;62154;54.914;73.444;2022-12-07T01:31:22;106.07;;;40.20;;
73823;SDS011;62154;54.914;73.444;2022-12-07T01:33:51;84.28;;;33.00;;
73823;SDS011;62154;54.914;73.444;2022-12-07T01:36:22;97.35;;;36.28;;
73823;SDS011;62154;54.914;73.444;2022-12-07T01:38:55;101.57;;;38.53;;
73823;SDS011;62154;54.914;73.444;2022-12-07T01:41:25;91.95;;;34.90;;
73823;SDS011;62154;54.914;73.444;2022-12-07T01:44:15;115.18;;;38.80;;
73823;SDS011;62154;54.914;73.444;2022-12-07T01:46:55;122.40;;;44.22;;
73823;SDS011;62154;54.914;73.444;2022-12-07T01:49:26;123.53;;;43.30;;
73823;SDS011;62154;54.914;73.444;2022-12-07T01:52:01;119.32;;;42.70;;
73823;SDS011;62154;54.914;73.444;2022-12-07T01:54:39;127.72;;;41.55;;
73823;SDS011;62154;54.914;73.444;2022-12-07T01:57:07;142.40;;;49.05;;
73823;SDS011;62154;54.914;73.444;2022-12-07T01:59:35;130.00;;;40.58;;
73823;SDS011;62154;54.914;73.444;2022-12-07T02:02:18;140.38;;;43.95;;
73823;SDS011;62154;54.914;73.444;2022-12-07T02:04:50;159.63;;;48.10;;
73823;SDS011;62154;54.914;73.444;2022-12-07T02:07:27;123.30;;;41.85;;
73823;SDS011;62154;54.914;73.444;2022-12-07T02:10:16;145.48;;;46.97;;
73823;SDS011;62154;54.914;73.444;2022-12-07T02:12:50;130.88;;;38.22;;
73823;SDS011;62154;54.914;73.444;2022-12-07T02:15:29;103.40;;;37.28;;
73823;SDS011;62154;54.914;73.444;2022-12-07T02:20:59;149.93;;;50.03;;
73823;SDS011;62154;54.914;73.444;2022-12-07T02:26:47;131.40;;;45.17;;
73823;SDS011;62154;54.914;73.444;2022-12-07T02:29:27;122.50;;;43.30;;
73823;SDS011;62154;54.914;73.444;2022-12-07T02:35:22;266.17;;;90.55;;
73823;SDS011;62154;54.914;73.444;2022-12-07T02:43:48;270.80;;;97.28;;
73823;SDS011;62154;54.914;73.444;2022-12-07T02:46:22;203.82;;;72.05;;
73823;SDS011;62154;54.914;73.444;2022-12-07T02:48:52;248.20;;;77.80;;
73823;SDS011;62154;54.914;73.444;2022-12-07T02:51:29;237.60;;;69.38;;
73823;SDS011;62154;54.914;73.444;2022-12-07T02:53:58;241.75;;;70.15;;
73823;SDS011;62154;54.914;73.444;2022-12-07T02:56:31;225.75;;;66.70;;
73823;SDS011;62154;54.914;73.444;2022-12-07T02:59:10;252.30;;;76.80;;
73823;SDS011;62154;54.914;73.444;2022-12-07T03:02:06;229.10;;;67.10;;
73823;SDS011;62154;54.914;73.444;2022-12-07T03:04:42;190.93;;;59.47;;
73823;SDS011;62154;54.914;73.444;2022-12-07T03:15:43;303.25;;;84.40;;
73823;SDS011;62154;54.914;73.444;2022-12-07T03:18:41;196.88;;;60.00;;
73823;SDS011;62154;54.914;73.444;2022-12-07T03:21:20;165.13;;;55.75;;
73823;SDS011;62154;54.914;73.444;2022-12-07T03:24:09;160.25;;;52.35;;
73823;SDS011;62154;54.914;73.444;2022-12-07T03:26:59;137.57;;;48.97;;
73823;SDS011;62154;54.914;73.444;2022-12-07T03:29:38;146.20;;;48.85;;
73823;SDS011;62154;54.914;73.444;2022-12-07T03:32:15;143.18;;;47.17;;
73823;SDS011;62154;54.914;73.444;2022-12-07T03:35:01;151.50;;;46.17;;
73823;SDS011;62154;54.914;73.444;2022-12-07T03:37:38;140.10;;;47.28;;
73823;SDS011;62154;54.914;73.444;2022-12-07T03:43:07;147.50;;;48.20;;
73823;SDS011;62154;54.914;73.444;2022-12-07T03:45:42;163.30;;;52.35;;
73823;SDS011;62154;54.914;73.444;2022-12-07T03:53:34;132.15;;;41.72;;
73823;SDS011;62154;54.914;73.444;2022-12-07T03:58:45;101.53;;;34.60;;
73823;SDS011;62154;54.914;73.444;2022-12-07T04:01:14;135.75;;;41.92;;
73823;SDS011;62154;54.914;73.444;2022-12-07T04:03:41;99.32;;;32.97;;
73823;SDS011;62154;54.914;73.444;2022-12-07T04:06:09;92.82;;;31.30;;
73823;SDS011;62154;54.914;73.444;2022-12-07T04:08:36;106.20;;;32.95;;
73823;SDS011;62154;54.914;73.444;2022-12-07T04:11:03;119.38;;;41.13;;
73823;SDS011;62154;54.914;73.444;2022-12-07T04:13:31;97.22;;;35.40;;
73823;SDS011;62154;54.914;73.444;2022-12-07T04:16:23;69.28;;;27.35;;
73823;SDS011;62154;54.914;73.444;2022-12-07T04:19:01;79.25;;;29.65;;
73823;SDS011;62154;54.914;73.444;2022-12-07T04:21:29;74.28;;;26.60;;
73823;SDS011;62154;54.914;73.444;2022-12-07T04:23:56;91.00;;;30.95;;
73823;SDS011;62154;54.914;73.444;2022-12-07T04:26:23;99.60;;;34.53;;
73823;SDS011;62154;54.914;73.444;2022-12-07T04:28:53;117.47;;;36.53;;
73823;SDS011;62154;54.914;73.444;2022-12-07T04:31:22;98.25;;;34.65;;
73823;SDS011;62154;54.914;73.444;2022-12-07T04:33:54;122.32;;;40.45;;
73823;SDS011;62154;54.914;73.444;2022-12-07T04:36:22;125.53;;;37.45;;
73823;SDS011;62154;54.914;73.444;2022-12-07T04:38:49;100.43;;;33.58;;
73823;SDS011;62154;54.914;73.444;2022-12-07T04:41:19;98.15;;;33.10;;
73823;SDS011;62154;54.914;73.444;2022-12-07T04:43:58;102.65;;;37.35;;
73823;SDS011;62154;54.914;73.444;2022-12-07T04:46:27;95.57;;;32.00;;
73823;SDS011;62154;54.914;73.444;2022-12-07T04:48:56;64.55;;;24.73;;
73823;SDS011;62154;54.914;73.444;2022-12-07T04:51:25;86.43;;;28.90;;
73823;SDS011;62154;54.914;73.444;2022-12-07T04:53:54;76.85;;;24.52;;
73823;SDS011;62154;54.914;73.444;2022-12-07T04:56:23;49.83;;;17.35;;
73823;SDS011;62154;54.914;73.444;2022-12-07T04:58:51;49.30;;;18.33;;
73823;SDS011;62154;54.914;73.444;2022-12-07T05:01:20;57.83;;;20.05;;
73823;SDS011;62154;54.914;73.444;2022-12-07T05:03:49;58.00;;;20.27;;
73823;SDS011;62154;54.914;73.444;2022-12-07T05:06:19;74.28;;;25.40;;
73823;SDS011;62154;54.914;73.444;2022-12-07T05:08:46;83.57;;;27.98;;
73823;SDS011;62154;54.914;73.444;2022-12-07T05:11:23;73.50;;;24.73;;
73823;SDS011;62154;54.914;73.444;2022-12-07T05:14:13;72.70;;;25.25;;
73823;SDS011;62154;54.914;73.444;2022-12-07T05:16:45;68.78;;;23.05;;
73823;SDS011;62154;54.914;73.444;2022-12-07T05:19:18;86.25;;;28.45;;
73823;SDS011;62154;54.914;73.444;2022-12-07T05:21:45;94.03;;;31.70;;
73823;SDS011;62154;54.914;73.444;2022-12-07T05:24:14;77.60;;;26.00;;
73823;SDS011;62154;54.914;73.444;2022-12-07T05:26:52;68.72;;;22.50;;
73823;SDS011;62154;54.914;73.444;2022-12-07T05:29:19;81.55;;;26.98;;
73823;SDS011;62154;54.914;73.444;2022-12-07T05:31:47;61.47;;;20.77;;
73823;SDS011;62154;54.914;73.444;2022-12-07T05:34:14;56.55;;;19.38;;
73823;SDS011;62154;54.914;73.444;2022-12-07T05:36:41;55.67;;;19.02;;
73823;SDS011;62154;54.914;73.444;2022-12-07T05:39:09;65.88;;;23.42;;
73823;SDS011;62154;54.914;73.444;2022-12-07T05:41:37;59.40;;;21.63;;
73823;SDS011;62154;54.914;73.444;2022-12-07T05:44:45;66.82;;;24.00;;
73823;SDS011;62154;54.914;73.444;2022-12-07T05:47:13;59.65;;;20.15;;
73823;SDS011;62154;54.914;73.444;2022-12-07T05:49:42;48.10;;;18.23;;
73823;SDS011;62154;54.914;73.444;2022-12-07T05:52:09;31.65;;;13.38;;
73823;SDS011;62154;54.914;73.444;2022-12-07T05:54:46;57.08;;;19.58;;
73823;SDS011;62154;54.914;73.444;2022-12-07T05:57:13;56.50;;;20.77;;
73823;SDS011;62154;54.914;73.444;2022-12-07T05:59:40;38.72;;;14.80;;
73823;SDS011;62154;54.914;73.444;2022-12-07T06:02:11;41.88;;;17.88;;
73823;SDS011;62154;54.914;73.444;2022-12-07T06:04:44;43.22;;;16.17;;
73823;SDS011;62154;54.914;73.444;2022-12-07T06:07:13;52.22;;;15.38;;
73823;SDS011;62154;54.914;73.444;2022-12-07T06:09:42;46.05;;;15.43;;
73823;SDS011;62154;54.914;73.444;2022-12-07T06:12:12;45.78;;;15.98;;
73823;SDS011;62154;54.914;73.444;2022-12-07T06:15:03;63.75;;;19.45;;
73823;SDS011;62154;54.914;73.444;2022-12-07T06:17:41;70.18;;;23.83;;
73823;SDS011;62154;54.914;73.444;2022-12-07T06:20:13;43.20;;;15.52;;
73823;SDS011;62154;54.914;73.444;2022-12-07T06:22:45;44.72;;;15.77;;
73823;SDS011;62154;54.914;73.444;2022-12-07T06:25:23;53.58;;;19.38;;
73823;SDS011;62154;54.914;73.444;2022-12-07T06:27:50;63.35;;;19.35;;
73823;SDS011;62154;54.914;73.444;2022-12-07T06:30:18;42.22;;;15.77;;
73823;SDS011;62154;54.914;73.444;2022-12-07T06:32:51;41.97;;;14.23;;
73823;SDS011;62154;54.914;73.444;2022-12-07T06:35:18;50.88;;;15.05;;
73823;SDS011;62154;54.914;73.444;2022-12-07T06:37:55;62.97;;;19.70;;
73823;SDS011;62154;54.914;73.444;2022-12-07T06:40:32;48.28;;;15.73;;
73823;SDS011;62154;54.914;73.444;2022-12-07T06:43:11;43.47;;;14.65;;
73823;SDS011;62154;54.914;73.444;2022-12-07T06:45:38;52.88;;;17.02;;
73823;SDS011;62154;54.914;73.444;2022-12-07T06:48:05;68.32;;;22.73;;
73823;SDS011;62154;54.914;73.444;2022-12-07T06:50:32;40.25;;;14.73;;
73823;SDS011;62154;54.914;73.444;2022-12-07T06:53:10;37.63;;;12.63;;
73823;SDS011;62154;54.914;73.444;2022-12-07T06:55:37;51.47;;;14.10;;
73823;SDS011;62154;54.914;73.444;2022-12-07T06:58:04;53.50;;;15.50;;
73823;SDS011;62154;54.914;73.444;2022-12-07T07:00:44;147.93;;;44.95;;
73823;SDS011;62154;54.914;73.444;2022-12-07T07:03:17;48.55;;;15.65;;
73823;SDS011;62154;54.914;73.444;2022-12-07T07:05:51;40.03;;;13.02;;
73823;SDS011;62154;54.914;73.444;2022-12-07T07:08:21;51.03;;;15.63;;
73823;SDS011;62154;54.914;73.444;2022-12-07T07:10:52;42.50;;;12.23;;
73823;SDS011;62154;54.914;73.444;2022-12-07T07:13:30;43.67;;;13.88;;
73823;SDS011;62154;54.914;73.444;2022-12-07T07:15:57;31.02;;;10.75;;
73823;SDS011;62154;54.914;73.444;2022-12-07T07:18:25;30.85;;;10.25;;
73823;SDS011;62154;54.914;73.444;2022-12-07T07:20:53;35.20;;;11.48;;
73823;SDS011;62154;54.914;73.444;2022-12-07T07:23:21;30.40;;;8.82;;
73823;SDS011;62154;54.914;73.444;2022-12-07T07:25:58;35.90;;;13.70;;
73823;SDS011;62154;54.914;73.444;2022-12-07T07:28:25;32.40;;;11.07;;
73823;SDS011;62154;54.914;73.444;2022-12-07T07:30:53;43.65;;;15.43;;
73823;SDS011;62154;54.914;73.444;2022-12-07T07:33:25;39.08;;;13.38;;
73823;SDS011;62154;54.914;73.444;2022-12-07T07:35:53;42.25;;;14.45;;
73823;SDS011;62154;54.914;73.444;2022-12-07T07:38:20;46.83;;;15.25;;
73823;SDS011;62154;54.914;73.444;2022-12-07T07:40:47;37.33;;;12.77;;
73823;SDS011;62154;54.914;73.444;2022-12-07T07:43:15;28.90;;;9.35;;
73823;SDS011;62154;54.914;73.444;2022-12-07T07:45:42;28.55;;;9.30;;
73823;SDS011;62154;54.914;73.444;2022-12-07T07:48:10;24.17;;;7.93;;
73823;SDS011;62154;54.914;73.444;2022-12-07T07:50:37;31.33;;;9.57;;
73823;SDS011;62154;54.914;73.444;2022-12-07T07:53:04;37.42;;;12.75;;
73823;SDS011;62154;54.914;73.444;2022-12-07T07:55:31;21.67;;;7.05;;
73823;SDS011;62154;54.914;73.444;2022-12-07T07:58:01;23.60;;;7.47;;
73823;SDS011;62154;54.914;73.444;2022-12-07T08:00:28;53.67;;;19.45;;
73823;SDS011;62154;54.914;73.444;2022-12-07T08:02:55;440.55;;;133.05;;
73823;SDS011;62154;54.914;73.444;2022-12-07T08:05:22;45.58;;;17.60;;
73823;SDS011;62154;54.914;73.444;2022-12-07T08:07:50;82.75;;;24.70;;
73823;SDS011;62154;54.914;73.444;2022-12-07T08:10:17;53.50;;;15.93;;
73823;SDS011;62154;54.914;73.444;2022-12-07T08:12:45;43.08;;;14.40;;
73823;SDS011;62154;54.914;73.444;2022-12-07T08:15:36;34.47;;;14.23;;
73823;SDS011;62154;54.914;73.444;2022-12-07T08:18:05;29.00;;;10.98;;
73823;SDS011;62154;54.914;73.444;2022-12-07T08:20:33;25.83;;;8.63;;
73823;SDS011;62154;54.914;73.444;2022-12-07T08:23:02;48.03;;;14.90;;
73823;SDS011;62154;54.914;73.444;2022-12-07T08:25:29;30.52;;;9.95;;
73823;SDS011;62154;54.914;73.444;2022-12-07T08:27:56;23.85;;;7.30;;
73823;SDS011;62154;54.914;73.444;2022-12-07T08:30:24;23.73;;;7.75;;
73823;SDS011;62154;54.914;73.444;2022-12-07T08:32:54;50.60;;;12.77;;
73823;SDS011;62154;54.914;73.444;2022-12-07T08:35:22;57.70;;;15.43;;
73823;SDS011;62154;54.914;73.444;2022-12-07T08:37:50;41.78;;;13.98;;
73823;SDS011;62154;54.914;73.444;2022-12-07T08:40:17;27.23;;;9.98;;
73823;SDS011;62154;54.914;73.444;2022-12-07T08:42:51;34.88;;;12.63;;
73823;SDS011;62154;54.914;73.444;2022-12-07T08:45:28;28.30;;;8.15;;
73823;SDS011;62154;54.914;73.444;2022-12-07T08:48:03;27.67;;;9.65;;
73823;SDS011;62154;54.914;73.444;2022-12-07T08:50:33;20.60;;;9.32;;
73823;SDS011;62154;54.914;73.444;2022-12-07T08:53:02;25.30;;;10.10;;
73823;SDS011;62154;54.914;73.444;2022-12-07T08:55:31;25.80;;;8.80;;
73823;SDS011;62154;54.914;73.444;2022-12-07T08:58:01;29.25;;;8.38;;
73823;SDS011;62154;54.914;73.444;2022-12-07T09:00:29;21.35;;;7.75;;
73823;SDS011;62154;54.914;73.444;2022-12-07T09:03:01;21.23;;;9.10;;
73823;SDS011;62154;54.914;73.444;2022-12-07T09:05:30;18.30;;;7.00;;
73823;SDS011;62154;54.914;73.444;2022-12-07T09:08:01;25.52;;;7.10;;
73823;SDS011;62154;54.914;73.444;2022-12-07T09:10:31;21.13;;;7.93;;
73823;SDS011;62154;54.914;73.444;2022-12-07T09:12:58;22.23;;;6.60;;
73823;SDS011;62154;54.914;73.444;2022-12-07T09:15:29;21.63;;;5.65;;
73823;SDS011;62154;54.914;73.444;2022-12-07T09:17:57;17.48;;;6.00;;
73823;SDS011;62154;54.914;73.444;2022-12-07T09:20:25;15.18;;;5.63;;
73823;SDS011;62154;54.914;73.444;2022-12-07T09:22:52;15.23;;;5.30;;
73823;SDS011;62154;54.914;73.444;2022-12-07T09:25:19;46.60;;;13.07;;
73823;SDS011;62154;54.914;73.444;2022-12-07T09:27:47;81.38;;;20.48;;
73823;SDS011;62154;54.914;73.444;2022-12-07T09:30:15;172.38;;;45.63;;
73823;SDS011;62154;54.914;73.444;2022-12-07T09:32:50;100.88;;;29.73;;
73823;SDS011;62154;54.914;73.444;2022-12-07T09:35:25;26.30;;;6.75;;
73823;SDS011;62154;54.914;73.444;2022-12-07T09:37:53;56.15;;;12.75;;
73823;SDS011;62154;54.914;73.444;2022-12-07T09:40:21;64.97;;;16.73;;
73823;SDS011;62154;54.914;73.444;2022-12-07T09:43:04;28.40;;;7.13;;
73823;SDS011;62154;54.914;73.444;2022-12-07T09:45:34;30.35;;;8.48;;
73823;SDS011;62154;54.914;73.444;2022-12-07T09:48:08;24.73;;;7.60;;
73823;SDS011;62154;54.914;73.444;2022-12-07T09:50:47;26.10;;;8.48;;
73823;SDS011;62154;54.914;73.444;2022-12-07T09:53:28;26.90;;;8.52;;
73823;SDS011;62154;54.914;73.444;2022-12-07T09:55:56;25.48;;;6.03;;
73823;SDS011;62154;54.914;73.444;2022-12-07T09:58:24;20.92;;;6.68;;
73823;SDS011;62154;54.914;73.444;2022-12-07T10:03:47;30.92;;;7.60;;
73823;SDS011;62154;54.914;73.444;2022-12-07T10:06:30;35.58;;;9.85;;
73823;SDS011;62154;54.914;73.444;2022-12-07T10:08:59;41.80;;;11.10;;
73823;SDS011;62154;54.914;73.444;2022-12-07T10:11:29;37.10;;;10.48;;
73823;SDS011;62154;54.914;73.444;2022-12-07T10:13:56;37.47;;;10.95;;
73823;SDS011;62154;54.914;73.444;2022-12-07T10:16:40;39.70;;;12.27;;
73823;SDS011;62154;54.914;73.444;2022-12-07T10:22:00;34.95;;;11.77;;
73823;SDS011;62154;54.914;73.444;2022-12-07T10:24:36;50.58;;;17.08;;
73823;SDS011;62154;54.914;73.444;2022-12-07T10:27:26;33.00;;;10.25;;
73823;SDS011;62154;54.914;73.444;2022-12-07T10:30:07;34.50;;;11.45;;
73823;SDS011;62154;54.914;73.444;2022-12-07T10:32:44;45.70;;;12.68;;
73823;SDS011;62154;54.914;73.444;2022-12-07T10:37:57;26.63;;;8.23;;
73823;SDS011;62154;54.914;73.444;2022-12-07T10:40:27;23.95;;;7.30;;
73823;SDS011;62154;54.914;73.444;2022-12-07T10:43:03;24.52;;;6.72;;
73823;SDS011;62154;54.914;73.444;2022-12-07T11:13:40;36.17;;;8.55;;
73823;SDS011;62154;54.914;73.444;2022-12-07T11:22:03;40.58;;;11.55;;
73823;SDS011;62154;54.914;73.444;2022-12-07T11:30:22;51.40;;;13.38;;
73823;SDS011;62154;54.914;73.444;2022-12-07T11:32:58;61.58;;;14.38;;
73823;SDS011;62154;54.914;73.444;2022-12-07T11:38:20;63.97;;;18.45;;
73823;SDS011;62154;54.914;73.444;2022-12-07T11:41:12;67.93;;;18.50;;
73823;SDS011;62154;54.914;73.444;2022-12-07T11:46:27;61.60;;;15.90;;
73823;SDS011;62154;54.914;73.444;2022-12-07T11:49:19;52.35;;;12.93;;
73823;SDS011;62154;54.914;73.444;2022-12-07T11:51:54;39.22;;;12.63;;
73823;SDS011;62154;54.914;73.444;2022-12-07T11:54:29;28.03;;;10.53;;
73823;SDS011;62154;54.914;73.444;2022-12-07T11:57:03;38.85;;;11.85;;
73823;SDS011;62154;54.914;73.444;2022-12-07T11:59:38;33.93;;;10.47;;
73823;SDS011;62154;54.914;73.444;2022-12-07T12:02:20;46.88;;;12.45;;
73823;SDS011;62154;54.914;73.444;2022-12-07T12:07:32;45.10;;;10.73;;
73823;SDS011;62154;54.914;73.444;2022-12-07T12:10:14;135.43;;;42.70;;
73823;SDS011;62154;54.914;73.444;2022-12-07T12:13:14;234.18;;;65.57;;
73823;SDS011;62154;54.914;73.444;2022-12-07T12:16:18;53.58;;;14.60;;
73823;SDS011;62154;54.914;73.444;2022-12-07T12:21:55;63.45;;;22.83;;
73823;SDS011;62154;54.914;73.444;2022-12-07T12:24:29;78.25;;;24.67;;
73823;SDS011;62154;54.914;73.444;2022-12-07T12:27:06;72.82;;;22.90;;
73823;SDS011;62154;54.914;73.444;2022-12-07T12:29:38;61.47;;;23.95;;
73823;SDS011;62154;54.914;73.444;2022-12-07T12:32:17;71.35;;;26.55;;
73823;SDS011;62154;54.914;73.444;2022-12-07T12:45:30;208.98;;;63.30;;
73823;SDS011;62154;54.914;73.444;2022-12-07T12:48:37;130.52;;;40.58;;
73823;SDS011;62154;54.914;73.444;2022-12-07T12:51:36;110.03;;;40.90;;
73823;SDS011;62154;54.914;73.444;2022-12-07T12:54:19;92.95;;;33.05;;
73823;SDS011;62154;54.914;73.444;2022-12-07T13:02:30;82.57;;;28.00;;
73823;SDS011;62154;54.914;73.444;2022-12-07T13:15:36;95.82;;;32.10;;
73823;SDS011;62154;54.914;73.444;2022-12-07T13:18:35;276.40;;;86.13;;
73823;SDS011;62154;54.914;73.444;2022-12-07T13:28:45;482.95;;;119.95;;
73823;SDS011;62154;54.914;73.444;2022-12-07T13:33:48;459.33;;;116.32;;
73823;SDS011;62154;54.914;73.444;2022-12-07T13:36:20;375.90;;;97.28;;
73823;SDS011;62154;54.914;73.444;2022-12-07T13:38:59;239.13;;;57.47;;
73823;SDS011;62154;54.914;73.444;2022-12-07T13:41:36;211.98;;;58.00;;
73823;SDS011;62154;54.914;73.444;2022-12-07T13:44:14;236.18;;;68.70;;
73823;SDS011;62154;54.914;73.444;2022-12-07T13:49:47;155.10;;;48.88;;
73823;SDS011;62154;54.914;73.444;2022-12-07T13:52:18;370.85;;;109.00;;
73823;SDS011;62154;54.914;73.444;2022-12-07T13:55:05;204.68;;;64.07;;
73823;SDS011;62154;54.914;73.444;2022-12-07T13:57:47;137.98;;;44.97;;
73823;SDS011;62154;54.914;73.444;2022-12-07T14:00:18;56.55;;;19.67;;
73823;SDS011;62154;54.914;73.444;2022-12-07T14:05:32;69.70;;;25.13;;
73823;SDS011;62154;54.914;73.444;2022-12-07T14:10:39;77.97;;;25.65;;
73823;SDS011;62154;54.914;73.444;2022-12-07T14:15:55;64.10;;;24.08;;
73823;SDS011;62154;54.914;73.444;2022-12-07T14:18:37;81.80;;;25.63;;
73823;SDS011;62154;54.914;73.444;2022-12-07T14:23:40;103.90;;;24.52;;
73823;SDS011;62154;54.914;73.444;2022-12-07T14:26:18;45.25;;;12.80;;
73823;SDS011;62154;54.914;73.444;2022-12-07T14:28:47;55.10;;;16.92;;
73823;SDS011;62154;54.914;73.444;2022-12-07T14:31:18;57.97;;;16.13;;
73823;SDS011;62154;54.914;73.444;2022-12-07T14:33:50;58.55;;;24.45;;
73823;SDS011;62154;54.914;73.444;2022-12-07T14:36:18;47.85;;;18.23;;
73823;SDS011;62154;54.914;73.444;2022-12-07T14:38:47;46.63;;;15.73;;
73823;SDS011;62154;54.914;73.444;2022-12-07T14:41:17;43.20;;;14.70;;
73823;SDS011;62154;54.914;73.444;2022-12-07T14:44:12;55.03;;;16.58;;
73823;SDS011;62154;54.914;73.444;2022-12-07T14:46:49;156.70;;;36.78;;
73823;SDS011;62154;54.914;73.444;2022-12-07T14:49:17;41.95;;;14.25;;
73823;SDS011;62154;54.914;73.444;2022-12-07T14:51:46;552.45;;;150.73;;
73823;SDS011;62154;54.914;73.444;2022-12-07T14:54:15;54.67;;;21.05;;
73823;SDS011;62154;54.914;73.444;2022-12-07T14:56:45;67.78;;;20.90;;
73823;SDS011;62154;54.914;73.444;2022-12-07T14:59:20;67.03;;;21.73;;
73823;SDS011;62154;54.914;73.444;2022-12-07T15:01:48;85.93;;;23.00;;
73823;SDS011;62154;54.914;73.444;2022-12-07T15:04:16;105.18;;;30.38;;
73823;SDS011;62154;54.914;73.444;2022-12-07T15:06:53;183.27;;;55.35;;
73823;SDS011;62154;54.914;73.444;2022-12-07T15:09:27;424.15;;;114.63;;
73823;SDS011;62154;54.914;73.444;2022-12-07T15:11:55;643.80;;;220.27;;
73823;SDS011;62154;54.914;73.444;2022-12-07T15:14:23;415.23;;;120.05;;
73823;SDS011;62154;54.914;73.444;2022-12-07T15:16:55;388.38;;;130.63;;
73823;SDS011;62154;54.914;73.444;2022-12-07T15:19:26;218.30;;;76.25;;
73823;SDS011;62154;54.914;73.444;2022-12-07T15:21:59;200.40;;;74.38;;
73823;SDS011;62154;54.914;73.444;2022-12-07T15:24:33;99.45;;;39.70;;
73823;SDS011;62154;54.914;73.444;2022-12-07T15:27:04;72.10;;;24.98;;
73823;SDS011;62154;54.914;73.444;2022-12-07T15:29:32;75.53;;;24.70;;
73823;SDS011;62154;54.914;73.444;2022-12-07T15:31:59;94.05;;;29.58;;
73823;SDS011;62154;54.914;73.444;2022-12-07T15:34:27;115.35;;;39.25;;
73823;SDS011;62154;54.914;73.444;2022-12-07T15:36:54;100.20;;;34.78;;
73823;SDS011;62154;54.914;73.444;2022-12-07T15:39:22;66.40;;;24.05;;
73823;SDS011;62154;54.914;73.444;2022-12-07T15:41:49;60.13;;;19.20;;
73823;SDS011;62154;54.914;73.444;2022-12-07T15:44:18;61.35;;;19.67;;
73823;SDS011;62154;54.914;73.444;2022-12-07T15:47:04;69.88;;;22.13;;
73823;SDS011;62154;54.914;73.444;2022-12-07T15:49:36;52.83;;;20.65;;
73823;SDS011;62154;54.914;73.444;2022-12-07T15:52:07;79.50;;;24.40;;
73823;SDS011;62154;54.914;73.444;2022-12-07T15:54:36;78.68;;;23.88;;
73823;SDS011;62154;54.914;73.444;2022-12-07T15:57:04;74.25;;;23.38;;
73823;SDS011;62154;54.914;73.444;2022-12-07T15:59:32;89.32;;;29.70;;
73823;SDS011;62154;54.914;73.444;2022-12-07T16:02:03;50.22;;;21.13;;
73823;SDS011;62154;54.914;73.444;2022-12-07T16:04:31;73.00;;;21.50;;
73823;SDS011;62154;54.914;73.444;2022-12-07T16:07:03;77.05;;;23.02;;
73823;SDS011;62154;54.914;73.444;2022-12-07T16:09:30;65.22;;;23.45;;
73823;SDS011;62154;54.914;73.444;2022-12-07T16:11:57;47.85;;;17.90;;
73823;SDS011;62154;54.914;73.444;2022-12-07T16:14:24;76.32;;;22.95;;
73823;SDS011;62154;54.914;73.444;2022-12-07T16:16:51;99.70;;;29.30;;
73823;SDS011;62154;54.914;73.444;2022-12-07T16:19:18;128.27;;;34.15;;
73823;SDS011;62154;54.914;73.444;2022-12-07T16:21:48;155.07;;;38.65;;
73823;SDS011;62154;54.914;73.444;2022-12-07T16:24:16;207.85;;;58.15;;
73823;SDS011;62154;54.914;73.444;2022-12-07T16:26:43;233.88;;;58.72;;
73823;SDS011;62154;54.914;73.444;2022-12-07T16:29:21;177.18;;;49.47;;
73823;SDS011;62154;54.914;73.444;2022-12-07T16:31:49;167.85;;;44.90;;
73823;SDS011;62154;54.914;73.444;2022-12-07T16:34:17;134.88;;;41.10;;
73823;SDS011;62154;54.914;73.444;2022-12-07T16:36:46;113.65;;;33.55;;
73823;SDS011;62154;54.914;73.444;2022-12-07T16:39:13;104.40;;;31.23;;
73823;SDS011;62154;54.914;73.444;2022-12-07T16:41:40;116.97;;;36.25;;
73823;SDS011;62154;54.914;73.444;2022-12-07T16:44:09;115.78;;;32.88;;
73823;SDS011;62154;54.914;73.444;2022-12-07T16:46:38;149.65;;;41.30;;
73823;SDS011;62154;54.914;73.444;2022-12-07T16:49:16;168.73;;;43.22;;
73823;SDS011;62154;54.914;73.444;2022-12-07T16:51:45;125.85;;;39.97;;
73823;SDS011;62154;54.914;73.444;2022-12-07T16:54:16;195.60;;;54.15;;
73823;SDS011;62154;54.914;73.444;2022-12-07T16:56:44;200.90;;;54.75;;
73823;SDS011;62154;54.914;73.444;2022-12-07T16:59:20;159.77;;;45.42;;
73823;SDS011;62154;54.914;73.444;2022-12-07T17:01:48;150.48;;;40.17;;